Time,TemperatureF,DewpointF,PressureIn,WindDirection,WindDirectionDegrees,WindSpeedMPH,WindSpeedGustMPH,Humidity,HourlyPrecipIn,Conditions,Clouds,dailyrainin,SoftwareType,DateUTC
2013-08-06 00:02:00,64.0,58.0,-100.00,SSW,200,1.0,1.0,80,-99.99,,,-99.99,,2013-08-06 05:02:00,
2013-08-06 00:11:00,64.0,58.0,-100.00,SSW,200,1.0,1.0,80,-99.99,,,-99.99,,2013-08-06 05:11:00,
2013-08-06 00:22:00,64.0,58.0,-100.00,SSW,200,1.0,1.0,80,-99.99,,,-99.99,,2013-08-06 05:22:00,
2013-08-06 00:32:00,70.0,66.0,-100.00,SSW,195,1.0,1.0,88,-99.99,,,-99.99,,2013-08-06 05:32:00,
2013-08-06 00:43:00,68.0,62.0,-100.00,SSW,195,1.0,1.0,82,-99.99,,,-99.99,,2013-08-06 05:43:00,
2013-08-06 00:53:00,68.0,62.0,-100.00,SSW,195,1.0,1.0,82,-99.99,,,-99.99,,2013-08-06 05:53:00,
2013-08-06 02:01:00,67.0,64.0,-100.00,SSW,200,1.0,1.0,89,-99.99,,,-99.99,,2013-08-06 07:01:00,
2013-08-06 02:32:00,64.0,60.0,-100.00,SSW,210,1.0,1.0,88,-99.99,,,-99.99,,2013-08-06 07:32:00,
2013-08-06 02:43:00,69.0,66.0,-100.00,SSW,205,1.0,1.0,89,-99.99,,,-99.99,,2013-08-06 07:43:00,
2013-08-06 02:53:00,69.0,66.0,-100.00,SSW,205,1.0,1.0,89,-99.99,,,-99.99,,2013-08-06 07:53:00,
2013-08-06 03:22:00,64.0,60.0,-100.00,SSW,200,1.0,1.0,88,-99.99,,,-99.99,,2013-08-06 08:22:00,
2013-08-06 03:33:00,64.0,60.0,-100.00,SSW,200,1.0,1.0,88,-99.99,,,-99.99,,2013-08-06 08:33:00,
2013-08-06 03:43:00,67.0,66.0,-100.00,South,170,1.0,1.0,96,-99.99,,,-99.99,,2013-08-06 08:43:00,
2013-08-06 03:52:00,67.0,66.0,-100.00,South,170,1.0,1.0,96,-99.99,,,-99.99,,2013-08-06 08:52:00,
2013-08-06 04:01:00,68.0,65.0,-100.00,South,180,1.0,1.0,89,-99.99,,,-99.99,,2013-08-06 09:01:00,
2013-08-06 04:11:00,66.0,63.0,-100.00,South,190,1.0,1.0,89,-99.99,,,-99.99,,2013-08-06 09:11:00,
2013-08-06 04:22:00,66.0,63.0,-100.00,South,190,1.0,1.0,89,-99.99,,,-99.99,,2013-08-06 09:22:00,
2013-08-06 04:43:00,66.0,65.0,-100.00,SSW,195,1.0,1.0,96,-99.99,,,-99.99,,2013-08-06 09:43:00,
2013-08-06 04:52:00,66.0,65.0,-100.00,SSW,195,1.0,1.0,96,-99.99,,,-99.99,,2013-08-06 09:52:00,
2013-08-06 05:01:00,66.0,63.0,-100.00,South,190,1.0,1.0,89,-99.99,,,-99.99,,2013-08-06 10:01:00,
2013-08-06 05:12:00,69.0,65.0,-100.00,South,190,1.0,1.0,88,-99.99,,,-99.99,,2013-08-06 10:12:00,
2013-08-06 05:22:00,69.0,65.0,-100.00,South,190,1.0,1.0,88,-99.99,,,-99.99,,2013-08-06 10:22:00,
2013-08-06 05:43:00,68.0,64.0,-100.00,South,180,1.0,1.0,88,-99.99,,,-99.99,,2013-08-06 10:43:00,
2013-08-06 05:53:00,68.0,64.0,-100.00,South,180,1.0,1.0,88,-99.99,,,-99.99,,2013-08-06 10:53:00,
2013-08-06 06:11:00,67.0,64.0,-100.00,South,180,1.0,1.0,90,-99.99,,,-99.99,,2013-08-06 11:11:00,
2013-08-06 06:22:00,67.0,64.0,-100.00,South,180,1.0,1.0,90,-99.99,,,-99.99,,2013-08-06 11:22:00,
2013-08-06 07:02:00,67.0,64.0,-100.00,South,190,1.0,1.0,91,-99.99,,,-99.99,,2013-08-06 12:02:00,
2013-08-06 07:11:00,69.0,66.0,-100.00,SSW,205,1.0,1.0,90,-99.99,,,-99.99,,2013-08-06 12:11:00,
2013-08-06 07:22:00,69.0,66.0,-100.00,SSW,205,1.0,1.0,90,-99.99,,,-99.99,,2013-08-06 12:22:00,
2013-08-06 07:43:00,68.0,65.0,-100.00,SW,215,1.0,1.0,90,-99.99,,,-99.99,,2013-08-06 12:43:00,
2013-08-06 07:52:00,68.0,65.0,-100.00,SW,215,1.0,1.0,90,-99.99,,,-99.99,,2013-08-06 12:52:00,
2013-08-06 08:11:00,65.0,62.0,-100.00,WSW,245,1.0,1.0,90,-99.99,,,-99.99,,2013-08-06 13:11:00,
2013-08-06 08:22:00,65.0,62.0,-100.00,WSW,245,1.0,1.0,90,-99.99,,,-99.99,,2013-08-06 13:22:00,
2013-08-06 08:32:00,70.0,66.0,-100.00,SW,215,1.0,1.0,89,-99.99,,,-99.99,,2013-08-06 13:32:00,
2013-08-06 08:42:00,71.0,68.0,-100.00,West,275,1.0,1.0,89,-99.99,,,-99.99,,2013-08-06 13:42:00,
2013-08-06 08:53:00,71.0,68.0,-100.00,West,275,1.0,1.0,89,-99.99,,,-99.99,,2013-08-06 13:53:00,
2013-08-06 09:01:00,69.0,65.0,-100.00,SW,230,1.0,1.0,89,-99.99,,,-99.99,,2013-08-06 14:01:00,
2013-08-06 09:11:00,68.0,64.0,-100.00,WSW,255,1.0,1.0,87,-99.99,,,-99.99,,2013-08-06 14:11:00,
2013-08-06 09:22:00,68.0,64.0,-100.00,WSW,255,1.0,1.0,87,-99.99,,,-99.99,,2013-08-06 14:22:00,
2013-08-06 10:44:00,69.0,64.0,-100.00,SW,235,1.0,1.0,85,-99.99,,,-99.99,,2013-08-06 15:44:00,
2013-08-06 10:52:00,69.0,64.0,-100.00,SW,235,1.0,1.0,85,-99.99,,,-99.99,,2013-08-06 15:52:00,
2013-08-06 12:11:00,76.0,66.0,-100.00,SW,220,1.0,1.0,72,-99.99,,,-99.99,,2013-08-06 17:11:00,
2013-08-06 12:21:00,76.0,66.0,-100.00,SW,220,1.0,1.0,72,-99.99,,,-99.99,,2013-08-06 17:21:00,
2013-08-06 13:01:00,79.0,64.0,-100.00,NW,305,1.0,1.0,61,-99.99,,,-99.99,,2013-08-06 18:01:00,
2013-08-06 13:32:00,82.0,66.0,-100.00,NW,325,1.0,1.0,59,-99.99,,,-99.99,,2013-08-06 18:32:00,
2013-08-06 17:43:00,83.0,66.0,-100.00,SSE,150,1.0,1.0,57,-99.99,,,-99.99,,2013-08-06 22:43:00,
2013-08-06 17:53:00,83.0,66.0,-100.00,SSE,150,1.0,1.0,57,-99.99,,,-99.99,,2013-08-06 22:53:00,
2013-08-06 19:01:00,82.0,71.0,-100.00,South,170,1.0,1.0,70,-99.99,,,-99.99,,2013-08-07 00:01:00,
2013-08-06 19:11:00,81.0,68.0,-100.00,SSE,165,1.0,1.0,65,-99.99,,,-99.99,,2013-08-07 00:11:00,
2013-08-06 19:21:00,81.0,68.0,-100.00,SSE,165,1.0,1.0,65,-99.99,,,-99.99,,2013-08-07 00:21:00,
2013-08-06 20:01:00,79.0,68.0,-100.00,SSE,155,1.0,1.0,69,-99.99,,,-99.99,,2013-08-07 01:01:00,
2013-08-06 20:11:00,76.0,67.0,-100.00,SSE,160,1.0,1.0,74,-99.99,,,-99.99,,2013-08-07 01:11:00,
2013-08-06 20:22:00,76.0,67.0,-100.00,SSE,160,1.0,1.0,74,-99.99,,,-99.99,,2013-08-07 01:22:00,
2013-08-06 20:32:00,74.0,66.0,-100.00,SSE,150,1.0,1.0,77,-99.99,,,-99.99,,2013-08-07 01:32:00,
2013-08-06 20:43:00,74.0,67.0,-100.00,SSE,155,1.0,1.0,77,-99.99,,,-99.99,,2013-08-07 01:43:00,
2013-08-06 20:52:00,74.0,67.0,-100.00,SSE,155,1.0,1.0,77,-99.99,,,-99.99,,2013-08-07 01:52:00,
2013-08-06 21:11:00,78.0,72.0,-100.00,SE,135,1.0,1.0,83,-99.99,,,-99.99,,2013-08-07 02:11:00,
2013-08-06 21:22:00,78.0,72.0,-100.00,SE,135,1.0,1.0,83,-99.99,,,-99.99,,2013-08-07 02:22:00,
2013-08-06 21:43:00,70.0,65.0,-100.00,SSE,155,1.0,1.0,85,-99.99,,,-99.99,,2013-08-07 02:43:00,
2013-08-06 21:53:00,70.0,65.0,-100.00,SSE,155,1.0,1.0,85,-99.99,,,-99.99,,2013-08-07 02:53:00,
2013-08-06 22:11:00,75.0,71.0,-100.00,SSE,155,1.0,1.0,86,-99.99,,,-99.99,,2013-08-07 03:11:00,
2013-08-06 22:23:00,75.0,71.0,-100.00,SSE,155,1.0,1.0,86,-99.99,,,-99.99,,2013-08-07 03:23:00,
2013-08-06 22:32:00,71.0,66.0,-100.00,SSE,155,1.0,1.0,86,-99.99,,,-99.99,,2013-08-07 03:32:00,
2013-08-06 22:43:00,70.0,66.0,-100.00,SSE,160,1.0,1.0,87,-99.99,,,-99.99,,2013-08-07 03:43:00,
2013-08-06 22:52:00,70.0,66.0,-100.00,SSE,160,1.0,1.0,87,-99.99,,,-99.99,,2013-08-07 03:52:00,
2013-08-06 23:11:00,72.0,70.0,-100.00,SSE,165,1.0,1.0,94,-99.99,,,-99.99,,2013-08-07 04:11:00,
2013-08-06 23:21:00,72.0,70.0,-100.00,SSE,165,1.0,1.0,94,-99.99,,,-99.99,,2013-08-07 04:21:00,
2013-08-06 23:33:00,68.0,65.0,-100.00,SSE,165,1.0,1.0,89,-99.99,,,-99.99,,2013-08-07 04:33:00,
2013-08-06 23:43:00,71.0,68.0,-100.00,South,170,1.0,1.0,89,-99.99,,,-99.99,,2013-08-07 04:43:00,
2013-08-06 23:52:00,71.0,68.0,-100.00,South,170,1.0,1.0,89,-99.99,,,-99.99,,2013-08-07 04:52:00,